Time;durP1;ratioP1;P1;durP2;ratioP2;P2;SDS_P1;SDS_P2;PMS_P1;PMS_P2;Temp;Humidity;BMP_temperature;BMP_pressure;BME280_temperature;BME280_humidity;BME280_pressure;Samples;Min_cycle;Max_cycle;Signal;HPM_P1;HPM_P2
2022/09/12 00:00:10;;;;;;;;;;;;;;;19.27;58.04;99683.75;4330903;32;20041;-82
2022/09/12 00:02:37;;;;;;;;;;;;;;;19.28;58.10;99687.22;4339364;32;19983;-82
2022/09/12 00:05:06;;;;;;;;;;;;;;;19.25;58.05;99679.41;4342650;32;20003;-82
2022/09/12 00:07:33;;;;;;;;;;;;;;;19.27;57.77;99682.84;4347408;32;19991;-82
2022/09/12 00:09:59;;;;;;;;;;;;;;;19.29;57.85;99681.94;4327672;33;20084;-82
2022/09/12 00:12:26;;;;;;;;;;;;;;;18.82;59.48;99682.94;4340873;32;20317;-82
2022/09/12 00:14:53;;;;;;;;;;;;;;;19.08;58.75;99676.28;4327135;33;20010;-82
2022/09/12 00:17:20;;;;;;;;;;;;;;;19.15;58.35;99678.75;4327465;32;20046;-82
2022/09/12 00:19:47;;;;;;;;;;;;;;;19.28;57.79;99676.72;4334310;32;19983;-83
2022/09/12 00:22:14;;;;;;;;;;;;;;;19.35;57.46;99680.94;4328139;33;19984;-83
2022/09/12 00:24:40;;;;;;;;;;;;;;;19.07;58.26;99679.81;4347096;32;19990;-82
2022/09/12 00:27:07;;;;;;;;;;;;;;;19.19;58.23;99690.03;4341636;32;20372;-83
2022/09/12 00:29:34;;;;;;;;;;;;;;;19.20;58.26;99689.13;4334961;33;20641;-83
2022/09/12 00:32:01;;;;;;;;;;;;;;;19.14;58.16;99682.25;4344957;32;19976;-82
2022/09/12 00:34:28;;;;;;;;;;;;;;;19.08;58.42;99692.00;4342735;32;19983;-82
2022/09/12 00:36:55;;;;;;;;;;;;;;;19.26;57.68;99689.00;4355649;32;20001;-82
2022/09/12 00:39:21;;;;;;;;;;;;;;;19.11;58.32;99686.72;4340434;33;20029;-82
2022/09/12 00:41:48;;;;;;;;;;;;;;;19.37;57.42;99684.41;4368281;32;19986;-82
2022/09/12 00:44:15;;;;;;;;;;;;;;;19.28;57.54;99689.84;4366978;32;19996;-82
2022/09/12 00:46:42;;;;;;;;;;;;;;;19.28;57.42;99692.47;4343371;32;20038;-82
2022/09/12 00:49:09;;;;;;;;;;;;;;;19.14;58.21;99691.88;4345815;32;19998;-82
2022/09/12 00:51:36;;;;;;;;;;;;;;;19.39;57.27;99693.09;4368170;32;20017;-82
2022/09/12 00:54:05;;;;;;;;;;;;;;;18.47;60.27;99694.91;4367169;32;20314;-82
2022/09/12 00:56:32;;;;;;;;;;;;;;;18.95;58.99;99691.41;4367778;32;20009;-82
2022/09/12 00:59:04;;;;;;;;;;;;;;;18.70;59.73;99685.78;4367835;32;19980;-83
2022/09/12 01:01:31;;;;;;;;;;;;;;;18.93;59.21;99687.97;4364802;32;20573;-82
2022/09/12 01:03:59;;;;;;;;;;;;;;;19.25;58.13;99695.16;4370210;32;19992;-82
2022/09/12 01:06:27;;;;;;;;;;;;;;;19.00;59.12;99695.66;4354182;32;19994;-82
2022/09/12 01:08:54;;;;;;;;;;;;;;;19.12;58.80;99696.31;4343540;32;19995;-83
2022/09/12 01:11:21;;;;;;;;;;;;;;;19.11;58.95;99697.19;4352576;32;19990;-83
2022/09/12 01:13:47;;;;;;;;;;;;;;;19.05;59.13;99700.84;4355276;32;20344;-83
2022/09/12 01:16:14;;;;;;;;;;;;;;;18.86;59.90;99687.22;4355489;32;20995;-83
2022/09/12 01:18:47;;;;;;;;;;;;;;;18.89;60.16;99687.19;4353779;32;20352;-82
2022/09/12 01:21:17;;;;;;;;;;;;;;;18.95;59.79;99687.06;4350613;32;20034;-83
2022/09/12 01:23:50;;;;;;;;;;;;;;;18.98;59.82;99686.97;4351629;32;20006;-82
2022/09/12 01:26:35;;;;;;;;;;;;;;;18.94;59.85;99685.31;4340646;33;20010;-82
2022/09/12 01:29:08;;;;;;;;;;;;;;;18.91;60.01;99689.75;4356718;32;20255;-83
2022/09/12 01:31:40;;;;;;;;;;;;;;;18.91;60.04;99690.59;4355159;32;19975;-83
2022/09/12 01:34:25;;;;;;;;;;;;;;;18.94;59.79;99690.56;4342910;32;20002;-83
2022/09/12 01:37:04;;;;;;;;;;;;;;;18.77;60.39;99692.66;4350409;32;20441;-82
2022/09/12 01:39:37;;;;;;;;;;;;;;;18.59;61.01;99684.22;4351295;32;19998;-82
2022/09/12 01:42:16;;;;;;;;;;;;;;;18.56;61.17;99683.41;4341228;32;19971;-83
2022/09/12 01:44:49;;;;;;;;;;;;;;;18.68;60.75;99682.31;4341585;32;20016;-83
2022/09/12 01:47:18;;;;;;;;;;;;;;;18.57;61.28;99686.00;4347412;32;20466;-83
2022/09/12 01:49:48;;;;;;;;;;;;;;;18.77;60.55;99684.78;4342385;32;20055;-83
2022/09/12 01:52:15;;;;;;;;;;;;;;;18.58;61.08;99681.63;4356540;32;19987;-82
2022/09/12 01:54:44;;;;;;;;;;;;;;;18.70;60.78;99691.03;4378207;32;20002;-83
2022/09/12 01:57:17;;;;;;;;;;;;;;;18.74;60.64;99690.09;4356161;32;19994;-83
2022/09/12 01:59:44;;;;;;;;;;;;;;;18.57;61.18;99686.00;4369550;32;19999;-83
2022/09/12 02:02:14;;;;;;;;;;;;;;;18.45;61.75;99691.47;4363873;32;20001;-83
2022/09/12 02:05:01;;;;;;;;;;;;;;;18.46;61.74;99693.19;4355517;32;19987;-83
2022/09/12 02:07:47;;;;;;;;;;;;;;;18.68;60.81;99693.66;4368921;32;20004;-82
2022/09/12 02:10:19;;;;;;;;;;;;;;;18.15;62.73;99698.13;4345248;32;19986;-82
2022/09/12 02:12:50;;;;;;;;;;;;;;;18.53;61.35;99700.06;4362379;32;19993;-83
2022/09/12 02:15:18;;;;;;;;;;;;;;;18.17;62.62;99700.72;4355965;32;19983;-82
2022/09/12 02:17:45;;;;;;;;;;;;;;;18.46;61.67;99698.44;4359436;32;19992;-82
2022/09/12 02:20:20;;;;;;;;;;;;;;;18.33;62.12;99707.44;4358052;32;19992;-82
2022/09/12 02:23:08;;;;;;;;;;;;;;;18.38;62.18;99705.59;4372939;32;19975;-83
2022/09/12 02:25:36;;;;;;;;;;;;;;;18.29;62.75;99700.53;4368727;32;19998;-82
2022/09/12 02:28:05;;;;;;;;;;;;;;;18.37;62.18;99698.59;4367801;32;19991;-82
2022/09/12 02:30:38;;;;;;;;;;;;;;;18.36;62.41;99702.13;4355454;32;19996;-82
2022/09/12 02:33:06;;;;;;;;;;;;;;;18.10;63.11;99695.59;4355402;32;19970;-82
2022/09/12 02:35:59;;;;;;;;;;;;;;;18.35;62.08;99695.16;4358358;32;19998;-82
2022/09/12 02:38:43;;;;;;;;;;;;;;;18.18;62.54;99691.97;4370113;32;19979;-82
2022/09/12 02:41:11;;;;;;;;;;;;;;;18.47;61.58;99684.44;4368974;32;19993;-82
2022/09/12 02:43:38;;;;;;;;;;;;;;;18.59;60.85;99693.84;4355655;32;19979;-82
2022/09/12 02:46:05;;;;;;;;;;;;;;;18.43;61.29;99708.97;4370263;32;20002;-82
2022/09/12 02:48:33;;;;;;;;;;;;;;;18.74;60.32;99697.97;4375286;32;20010;-82
2022/09/12 02:51:00;;;;;;;;;;;;;;;18.64;60.48;99701.63;4359479;32;20028;-82
2022/09/12 02:53:27;;;;;;;;;;;;;;;18.74;60.15;99703.22;4348355;32;19974;-82
2022/09/12 02:55:55;;;;;;;;;;;;;;;18.74;60.17;99703.22;4375105;32;20002;-82
2022/09/12 02:58:22;;;;;;;;;;;;;;;18.68;60.41;99705.91;4361766;32;20018;-82
2022/09/12 03:00:50;;;;;;;;;;;;;;;18.68;60.39;99705.91;4357517;32;19987;-82
2022/09/12 03:03:20;;;;;;;;;;;;;;;18.81;60.15;99702.19;4371154;32;20005;-82
2022/09/12 03:05:53;;;;;;;;;;;;;;;18.75;60.25;99705.78;4375420;32;19986;-82
2022/09/12 03:08:28;;;;;;;;;;;;;;;18.61;60.39;99706.94;4380837;32;19982;-82
2022/09/12 03:11:02;;;;;;;;;;;;;;;18.58;60.98;99710.47;4366494;32;19986;-82
2022/09/12 03:13:35;;;;;;;;;;;;;;;18.71;60.41;99703.22;4357659;32;19979;-82
2022/09/12 03:16:11;;;;;;;;;;;;;;;18.36;61.06;99702.13;4358023;32;20034;-82
2022/09/12 03:19:01;;;;;;;;;;;;;;;18.61;59.94;99701.69;4371210;32;20029;-82
2022/09/12 03:21:34;;;;;;;;;;;;;;;18.63;59.82;99699.88;4370180;32;20254;-82
2022/09/12 03:24:12;;;;;;;;;;;;;;;18.36;60.46;99691.66;4370872;32;19990;-82
2022/09/12 03:26:38;;;;;;;;;;;;;;;18.47;59.67;99694.91;4357486;32;20014;-82
2022/09/12 03:29:05;;;;;;;;;;;;;;;18.57;59.38;99693.88;4370582;32;20347;-82
2022/09/12 03:31:32;;;;;;;;;;;;;;;18.66;59.08;99695.44;4351920;32;19998;-82
2022/09/12 03:33:59;;;;;;;;;;;;;;;18.21;60.73;99699.78;4371072;32;19971;-83
2022/09/12 03:36:27;;;;;;;;;;;;;;;18.60;59.44;99695.56;4356982;32;20787;-82
2022/09/12 03:38:54;;;;;;;;;;;;;;;18.48;59.71;99701.91;4370435;32;20004;-83
2022/09/12 03:41:20;;;;;;;;;;;;;;;18.54;59.34;99707.03;4375164;32;19974;-83
2022/09/12 03:43:47;;;;;;;;;;;;;;;18.17;60.71;99709.44;4385743;32;20406;-82
2022/09/12 03:46:14;;;;;;;;;;;;;;;18.17;60.55;99711.19;4379041;32;20429;-83
2022/09/12 03:48:41;;;;;;;;;;;;;;;18.30;60.34;99712.72;4363388;32;20041;-82
2022/09/12 03:51:09;;;;;;;;;;;;;;;18.45;59.56;99696.72;4357510;32;19987;-82
2022/09/12 03:53:36;;;;;;;;;;;;;;;18.22;60.54;99698.88;4357248;32;19987;-82
2022/09/12 03:56:07;;;;;;;;;;;;;;;18.50;59.28;99705.34;4357159;32;19999;-82
2022/09/12 03:58:35;;;;;;;;;;;;;;;18.49;59.29;99695.75;4371056;32;20016;-82
2022/09/12 04:01:12;;;;;;;;;;;;;;;18.45;59.18;99709.81;4372643;32;20010;-82
2022/09/12 04:03:42;;;;;;;;;;;;;;;18.17;59.93;99705.97;4361885;32;20494;-83
2022/09/12 04:06:10;;;;;;;;;;;;;;;18.35;59.43;99705.66;4369580;32;20001;-82
2022/09/12 04:08:37;;;;;;;;;;;;;;;18.31;59.38;99709.19;4370529;32;19987;-82
2022/09/12 04:11:05;;;;;;;;;;;;;;;18.16;60.12;99710.34;4357024;32;19983;-82
2022/09/12 04:13:31;;;;;;;;;;;;;;;18.20;59.83;99716.41;4370735;32;19971;-82
2022/09/12 04:15:58;;;;;;;;;;;;;;;18.35;59.40;99718.75;4368769;32;19983;-82
2022/09/12 04:18:26;;;;;;;;;;;;;;;18.21;59.66;99724.22;4370645;32;20316;-82
2022/09/12 04:20:53;;;;;;;;;;;;;;;18.29;59.43;99721.47;4373755;32;19990;-82
2022/09/12 04:23:19;;;;;;;;;;;;;;;17.94;61.00;99725.53;4365854;32;19970;-82
2022/09/12 04:25:56;;;;;;;;;;;;;;;18.02;60.11;99718.41;4368448;32;19997;-82
2022/09/12 04:28:24;;;;;;;;;;;;;;;18.25;59.56;99709.31;4384512;32;19990;-82
2022/09/12 04:30:51;;;;;;;;;;;;;;;18.35;59.22;99716.12;4377487;32;20442;-82
2022/09/12 04:33:18;;;;;;;;;;;;;;;18.31;59.53;99715.31;4370415;32;19990;-82
2022/09/12 04:35:45;;;;;;;;;;;;;;;18.27;59.57;99718.00;4370199;32;19982;-87
2022/09/12 04:38:12;;;;;;;;;;;;;;;18.30;59.32;99717.97;4368595;32;19983;-87
2022/09/12 04:40:39;;;;;;;;;;;;;;;18.24;59.48;99718.06;4357650;32;20032;-83
2022/09/12 04:43:06;;;;;;;;;;;;;;;18.38;59.29;99718.69;4375150;32;19971;-82
2022/09/12 04:45:38;;;;;;;;;;;;;;;18.51;58.76;99722.81;4368955;32;19991;-81
2022/09/12 04:48:05;;;;;;;;;;;;;;;18.39;59.17;99723.03;4379028;32;20042;-82
2022/09/12 04:50:31;;;;;;;;;;;;;;;18.28;59.37;99719.72;4376632;32;20036;-81
2022/09/12 04:52:59;;;;;;;;;;;;;;;18.36;59.59;99728.34;4369148;32;20334;-83
2022/09/12 04:55:25;;;;;;;;;;;;;;;18.29;59.79;99737.19;4370090;32;19991;-83
2022/09/12 04:57:52;;;;;;;;;;;;;;;18.32;59.60;99738.00;4356688;32;20018;-82
2022/09/12 05:00:19;;;;;;;;;;;;;;;18.41;59.28;99737.00;4376484;32;19978;-82
2022/09/12 05:02:46;;;;;;;;;;;;;;;18.36;59.43;99738.81;4369567;32;20001;-83
2022/09/12 05:05:13;;;;;;;;;;;;;;;18.57;58.56;99743.69;4368211;32;19989;-83
2022/09/12 05:07:40;;;;;;;;;;;;;;;18.56;58.64;99743.69;4372487;32;20778;-84
2022/09/12 05:10:07;;;;;;;;;;;;;;;18.75;57.89;99736.41;4374815;32;19987;-86
2022/09/12 05:12:34;;;;;;;;;;;;;;;18.56;58.21;99747.19;4369834;32;20002;-85
2022/09/12 05:15:03;;;;;;;;;;;;;;;18.55;58.56;99755.94;4369617;32;20037;-82
2022/09/12 05:17:30;;;;;;;;;;;;;;;18.61;58.73;99751.50;4375409;32;20034;-82
2022/09/12 05:19:57;;;;;;;;;;;;;;;18.52;59.23;99753.38;4351841;32;20014;-83
2022/09/12 05:22:24;;;;;;;;;;;;;;;18.56;59.01;99760.28;4369809;32;19979;-83
2022/09/12 05:24:50;;;;;;;;;;;;;;;18.64;58.95;99759.31;4368205;32;20017;-82
2022/09/12 05:27:17;;;;;;;;;;;;;;;18.68;58.34;99766.22;4376180;32;19990;-82
2022/09/12 05:29:44;;;;;;;;;;;;;;;18.72;58.56;99767.88;4371582;32;19978;-82
2022/09/12 05:32:11;;;;;;;;;;;;;;;18.72;58.98;99778.38;4356249;32;20401;-82
2022/09/12 05:34:39;;;;;;;;;;;;;;;18.55;59.90;99782.16;4356058;32;20323;-83
2022/09/12 05:37:06;;;;;;;;;;;;;;;18.94;58.09;99774.50;4356757;32;20110;-85
2022/09/12 05:39:32;;;;;;;;;;;;;;;18.87;58.54;99772.87;4368397;32;20243;-88
2022/09/12 05:41:59;;;;;;;;;;;;;;;19.00;57.88;99769.12;4384607;32;19978;-84
2022/09/12 05:44:27;;;;;;;;;;;;;;;18.88;58.42;99769.34;4374810;32;19979;-83
2022/09/12 05:46:53;;;;;;;;;;;;;;;18.67;58.73;99775.84;4360284;32;19990;-81
2022/09/12 05:49:20;;;;;;;;;;;;;;;18.86;58.64;99781.66;4381171;32;20703;-82
2022/09/12 05:51:47;;;;;;;;;;;;;;;18.76;58.72;99785.31;4381441;32;19998;-84
2022/09/12 05:54:16;;;;;;;;;;;;;;;18.81;58.40;99788.72;4377026;32;20044;-87
2022/09/12 05:56:43;;;;;;;;;;;;;;;18.73;59.21;99777.50;4381222;32;20017;-86
2022/09/12 05:59:12;;;;;;;;;;;;;;;18.95;58.46;99785.84;4367506;32;19994;-87
2022/09/12 06:01:39;;;;;;;;;;;;;;;18.93;58.33;99782.41;4370384;32;20002;-86
2022/09/12 06:04:06;;;;;;;;;;;;;;;19.07;57.88;99785.59;4383991;32;20370;-87
2022/09/12 06:06:37;;;;;;;;;;;;;;;18.86;58.78;99797.41;4358633;32;19990;-87
2022/09/12 06:09:04;;;;;;;;;;;;;;;19.10;58.13;99789.94;4382413;32;20319;-84
2022/09/12 06:11:32;;;;;;;;;;;;;;;18.90;58.47;99796.44;4357842;32;19974;-87
2022/09/12 06:13:59;;;;;;;;;;;;;;;19.05;58.26;99788.28;4366874;32;19983;-86
2022/09/12 06:16:27;;;;;;;;;;;;;;;19.07;58.03;99784.75;4368856;32;19978;-88
2022/09/12 06:18:55;;;;;;;;;;;;;;;19.11;57.90;99791.66;4370214;32;20857;-88
2022/09/12 06:21:22;;;;;;;;;;;;;;;18.70;59.57;99790.66;4370464;32;20032;-86
2022/09/12 06:23:49;;;;;;;;;;;;;;;18.95;58.83;99791.09;4377648;32;20038;-86
2022/09/12 06:26:20;;;;;;;;;;;;;;;19.26;57.65;99791.34;4367895;32;20009;-88
2022/09/12 06:28:47;;;;;;;;;;;;;;;19.13;57.92;99789.88;4360842;32;19986;-86
2022/09/12 06:31:14;;;;;;;;;;;;;;;19.10;58.03;99780.31;4371187;32;19989;-82
2022/09/12 06:33:42;;;;;;;;;;;;;;;18.92;58.69;99781.53;4369611;32;19983;-81
2022/09/12 06:36:10;;;;;;;;;;;;;;;18.99;58.57;99798.03;4375037;32;19987;-81
2022/09/12 06:38:38;;;;;;;;;;;;;;;19.03;58.58;99789.19;4358943;32;20351;-86
2022/09/12 06:41:06;;;;;;;;;;;;;;;18.86;59.82;99786.91;4381431;32;19966;-85
2022/09/12 06:43:33;;;;;;;;;;;;;;;18.83;60.13;99791.34;4380429;32;19986;-85
2022/09/12 06:46:00;;;;;;;;;;;;;;;19.22;58.20;99789.69;4378100;32;19987;-85
2022/09/12 06:48:28;;;;;;;;;;;;;;;19.36;57.38;99787.66;4382455;32;20025;-84
2022/09/12 06:51:00;;;;;;;;;;;;;;;19.47;57.56;99785.69;4370901;32;19982;-85
2022/09/12 06:53:27;;;;;;;;;;;;;;;19.26;58.42;99786.09;4376500;32;20323;-86
2022/09/12 06:56:05;;;;;;;;;;;;;;;19.43;58.42;99786.66;4383114;32;20057;-86
2022/09/12 06:58:32;;;;;;;;;;;;;;;19.79;56.78;99778.88;4380927;32;21539;-86
2022/09/12 07:01:02;;;;;;;;;;;;;;;20.04;56.31;99775.69;4389004;32;19997;-87
2022/09/12 07:03:29;;;;;;;;;;;;;;;20.00;55.92;99779.28;4383111;32;20034;-80
2022/09/12 07:05:56;;;;;;;;;;;;;;;20.28;55.98;99785.59;4376836;32;20026;-86
2022/09/12 07:08:23;;;;;;;;;;;;;;;20.29;55.81;99776.81;4377108;32;20696;-85
2022/09/12 07:10:50;;;;;;;;;;;;;;;21.01;53.17;99776.75;4382362;32;20032;-86
2022/09/12 07:13:17;;;;;;;;;;;;;;;21.13;51.96;99782.53;4376768;32;19994;-87
2022/09/12 07:15:44;;;;;;;;;;;;;;;21.06;53.45;99786.25;4390302;32;20246;-86
2022/09/12 07:18:10;;;;;;;;;;;;;;;21.29;52.08;99782.97;4378857;32;19987;-86
2022/09/12 07:20:38;;;;;;;;;;;;;;;21.52;51.23;99789.34;4374737;32;19992;-87
2022/09/12 07:23:05;;;;;;;;;;;;;;;21.08;52.07;99788.81;4387504;32;20046;-83
2022/09/12 07:25:32;;;;;;;;;;;;;;;20.79;52.56;99792.25;4381017;32;19994;-81
2022/09/12 07:27:59;;;;;;;;;;;;;;;21.11;52.15;99791.38;4369975;32;20000;-82
2022/09/12 07:30:26;;;;;;;;;;;;;;;21.48;52.01;99787.72;4363311;32;19974;-79
2022/09/12 07:32:53;;;;;;;;;;;;;;;21.72;51.03;99794.87;4370333;32;20041;-84
2022/09/12 07:35:20;;;;;;;;;;;;;;;22.20;49.14;99794.28;4343841;32;19991;-86
2022/09/12 07:37:47;;;;;;;;;;;;;;;22.48;47.15;99794.25;4346225;32;19982;-83
2022/09/12 07:40:14;;;;;;;;;;;;;;;22.45;47.73;99793.47;4375199;32;19991;-84
2022/09/12 07:42:41;;;;;;;;;;;;;;;22.68;45.98;99796.19;4370011;32;20110;-85
2022/09/12 07:45:08;;;;;;;;;;;;;;;22.79;46.09;99787.91;4344215;32;19979;-79
2022/09/12 07:47:35;;;;;;;;;;;;;;;22.73;47.04;99793.41;4352149;32;19991;-80
2022/09/12 07:50:01;;;;;;;;;;;;;;;22.71;47.74;99800.50;4370697;32;20013;-84
2022/09/12 07:52:28;;;;;;;;;;;;;;;23.15;46.01;99793.69;4376378;32;20074;-83
2022/09/12 07:54:56;;;;;;;;;;;;;;;23.46;44.93;99804.94;4365033;32;19999;-81
2022/09/12 07:57:22;;;;;;;;;;;;;;;23.50;44.48;99791.53;4362541;32;20054;-80
2022/09/12 07:59:50;;;;;;;;;;;;;;;23.67;44.01;99794.41;4367970;32;19990;-85
2022/09/12 08:02:19;;;;;;;;;;;;;;;23.48;45.47;99796.00;4368460;32;19991;-83
2022/09/12 08:04:47;;;;;;;;;;;;;;;23.91;43.08;99797.03;4357534;32;19994;-83
2022/09/12 08:07:14;;;;;;;;;;;;;;;23.94;43.05;99790.78;4375963;32;20316;-82
2022/09/12 08:09:40;;;;;;;;;;;;;;;23.66;44.39;99792.66;4368999;32;20002;-86
2022/09/12 08:12:07;;;;;;;;;;;;;;;23.95;44.99;99792.47;4356482;32;19995;-85
2022/09/12 08:14:34;;;;;;;;;;;;;;;24.09;45.53;99795.41;4383895;32;20002;-87
2022/09/12 08:17:01;;;;;;;;;;;;;;;24.44;42.08;99796.69;4384101;32;19991;-85
2022/09/12 08:19:28;;;;;;;;;;;;;;;24.80;40.75;99798.69;4369806;32;19986;-85
2022/09/12 08:21:54;;;;;;;;;;;;;;;24.56;41.76;99785.56;4354674;32;20025;-80
2022/09/12 08:24:21;;;;;;;;;;;;;;;24.90;40.17;99793.84;4355693;32;19986;-84
2022/09/12 08:26:48;;;;;;;;;;;;;;;24.65;43.04;99788.75;4358496;32;19982;-80
2022/09/12 08:29:15;;;;;;;;;;;;;;;24.93;41.36;99791.94;4365313;32;19979;-82
2022/09/12 08:31:42;;;;;;;;;;;;;;;24.76;42.15;99794.44;4384672;32;19979;-81
2022/09/12 08:34:09;;;;;;;;;;;;;;;25.18;41.59;99793.53;4382898;32;20388;-80
2022/09/12 08:36:35;;;;;;;;;;;;;;;25.13;41.15;99790.22;4380392;32;20092;-86
2022/09/12 08:39:04;;;;;;;;;;;;;;;25.00;42.72;99796.03;4369442;32;20260;-88
2022/09/12 08:41:33;;;;;;;;;;;;;;;25.14;41.39;99792.78;4373185;32;19986;-85
2022/09/12 08:44:19;;;;;;;;;;;;;;;25.16;41.03;99800.69;4345848;32;20026;-85
2022/09/12 08:47:05;;;;;;;;;;;;;;;25.04;40.49;99792.31;4378369;32;20347;-85
2022/09/12 08:49:44;;;;;;;;;;;;;;;24.66;42.30;99790.47;4373179;32;19979;-87
2022/09/12 08:52:12;;;;;;;;;;;;;;;24.77;41.87;99789.09;4374172;32;20005;-87
2022/09/12 08:54:38;;;;;;;;;;;;;;;25.24;38.73;99787.97;4371962;32;20006;-87
2022/09/12 08:57:07;;;;;;;;;;;;;;;25.57;36.52;99776.72;4370406;32;20359;-88
2022/09/12 08:59:36;;;;;;;;;;;;;;;25.25;39.11;99779.06;4369081;32;20751;-86
2022/09/12 09:02:04;;;;;;;;;;;;;;;25.29;39.54;99780.66;4376879;32;20018;-89
2022/09/12 09:04:31;;;;;;;;;;;;;;;25.31;38.64;99778.81;4368585;32;19987;-87
2022/09/12 09:07:05;;;;;;;;;;;;;;;25.33;39.11;99776.91;4366759;32;20009;-86
2022/09/12 09:09:41;;;;;;;;;;;;;;;25.11;39.65;99781.44;4377942;32;19971;-85
2022/09/12 09:12:27;;;;;;;;;;;;;;;25.34;38.33;99768.06;4375211;32;19979;-87
2022/09/12 09:15:20;;;;;;;;;;;;;;;25.42;41.62;99770.34;4370246;32;20069;-89
2022/09/12 09:17:48;;;;;;;;;;;;;;;25.80;40.31;99768.53;4364281;32;19979;-89
2022/09/12 09:20:25;;;;;;;;;;;;;;;25.88;37.37;99774.38;4370481;32;20029;-89
2022/09/12 09:22:54;;;;;;;;;;;;;;;25.55;40.80;99767.97;4369617;32;20024;-85
2022/09/12 09:25:21;;;;;;;;;;;;;;;25.44;39.14;99769.34;4368750;32;19995;-86
2022/09/12 09:27:59;;;;;;;;;;;;;;;25.75;36.76;99767.91;4369149;32;20065;-88
2022/09/12 09:30:27;;;;;;;;;;;;;;;25.87;37.31;99766.50;4362762;32;19979;-87
2022/09/12 09:32:55;;;;;;;;;;;;;;;25.96;38.10;99766.91;4376573;32;19983;-87
2022/09/12 09:35:27;;;;;;;;;;;;;;;26.21;37.31;99771.00;4344287;32;19982;-83
2022/09/12 09:38:21;;;;;;;;;;;;;;;26.14;38.69;99759.00;4371696;32;20018;-84
2022/09/12 09:40:58;;;;;;;;;;;;;;;25.84;38.24;99772.78;4366190;32;20049;-85
2022/09/12 09:43:28;;;;;;;;;;;;;;;25.57;38.70;99769.62;4370246;32;19996;-89
2022/09/12 09:45:55;;;;;;;;;;;;;;;25.77;38.03;99773.13;4365153;32;19994;-89
2022/09/12 09:48:22;;;;;;;;;;;;;;;25.66;37.75;99779.81;4363079;32;20395;-88
2022/09/12 09:50:49;;;;;;;;;;;;;;;25.68;37.62;99782.38;4369161;32;19994;-87
2022/09/12 09:53:29;;;;;;;;;;;;;;;25.10;38.38;99782.38;4357819;32;20008;-86
2022/09/12 09:55:56;;;;;;;;;;;;;;;24.78;40.51;99779.34;4367895;32;20761;-86
2022/09/12 09:58:30;;;;;;;;;;;;;;;24.80;39.94;99788.09;4369541;32;20036;-89
2022/09/12 10:00:57;;;;;;;;;;;;;;;24.53;40.84;99785.69;4367737;32;19989;-83
2022/09/12 10:03:27;;;;;;;;;;;;;;;24.63;40.50;99790.59;4373056;32;19990;-88
2022/09/12 10:05:58;;;;;;;;;;;;;;;24.84;38.93;99776.44;4368790;32;20450;-88
2022/09/12 10:08:29;;;;;;;;;;;;;;;24.74;39.87;99761.88;4387313;32;20316;-88
2022/09/12 10:11:25;;;;;;;;;;;;;;;25.03;39.45;99765.91;4372380;32;19978;-86
2022/09/12 10:13:59;;;;;;;;;;;;;;;25.36;39.44;99760.03;4372212;32;20042;-88
2022/09/12 10:16:33;;;;;;;;;;;;;;;25.46;38.21;99756.00;4380436;32;19994;-87
2022/09/12 10:19:01;;;;;;;;;;;;;;;25.06;38.11;99758.66;4386179;32;19979;-90
2022/09/12 10:21:35;;;;;;;;;;;;;;;24.99;38.62;99773.13;4384027;32;20312;-90
2022/09/12 10:24:10;;;;;;;;;;;;;;;24.83;39.41;99766.78;4373287;32;19983;-90
2022/09/12 10:26:37;;;;;;;;;;;;;;;24.73;41.87;99768.97;4382009;32;21171;-88
2022/09/12 10:29:13;;;;;;;;;;;;;;;24.19;41.30;99770.34;4381986;32;20006;-87
2022/09/12 10:31:48;;;;;;;;;;;;;;;24.21;41.30;99760.53;4382107;32;20009;-89
2022/09/12 10:34:45;;;;;;;;;;;;;;;24.58;40.69;99762.53;4382088;32;20002;-90
2022/09/12 10:37:16;;;;;;;;;;;;;;;24.88;39.60;99759.47;4361199;32;20041;-88
2022/09/12 10:39:49;;;;;;;;;;;;;;;23.82;45.08;99765.66;4390288;32;20320;-89
2022/09/12 10:42:16;;;;;;;;;;;;;;;23.97;42.68;99770.34;4369975;32;20045;-87
2022/09/12 10:44:53;;;;;;;;;;;;;;;24.22;41.51;99764.03;4372879;32;19998;-89
2022/09/12 10:47:21;;;;;;;;;;;;;;;24.29;41.20;99770.81;4376800;32;20004;-88
2022/09/12 10:49:49;;;;;;;;;;;;;;;24.08;42.80;99765.47;4371804;32;19983;-92
2022/09/12 10:52:22;;;;;;;;;;;;;;;23.99;42.55;99773.78;4377987;32;20304;-91
2022/09/12 10:54:49;;;;;;;;;;;;;;;23.28;44.74;99766.84;4369781;32;20436;-91
2022/09/12 10:57:35;;;;;;;;;;;;;;;23.65;44.41;99768.94;4376722;32;20370;-90
2022/09/12 11:00:13;;;;;;;;;;;;;;;23.59;45.81;99764.75;4370840;32;20731;-88
2022/09/12 11:02:40;;;;;;;;;;;;;;;23.67;43.86;99762.69;4370520;32;19999;-90
2022/09/12 11:05:13;;;;;;;;;;;;;;;23.81;43.06;99748.09;4378036;32;19979;-88
2022/09/12 11:08:09;;;;;;;;;;;;;;;23.83;43.48;99762.94;4372069;32;20371;-92
2022/09/12 11:11:14;;;;;;;;;;;;;;;23.47;44.20;99769.66;4364272;32;20012;-94
2022/09/12 11:13:47;;;;;;;;;;;;;;;23.25;46.10;99769.59;4336989;32;20305;-89
2022/09/12 11:16:14;;;;;;;;;;;;;;;23.71;43.34;99758.19;4353337;32;20076;-89
2022/09/12 11:19:02;;;;;;;;;;;;;;;23.46;44.81;99758.22;4362471;32;19978;-88
2022/09/12 11:21:58;;;;;;;;;;;;;;;23.71;43.35;99759.94;4374591;32;19998;-91
2022/09/12 11:24:34;;;;;;;;;;;;;;;23.16;45.01;99765.50;4364175;32;19983;-92
2022/09/12 11:27:21;;;;;;;;;;;;;;;23.34;44.76;99774.53;4371318;32;20022;-92
2022/09/12 11:29:53;;;;;;;;;;;;;;;23.24;44.86;99766.09;4364576;32;20352;-91
2022/09/12 11:32:23;;;;;;;;;;;;;;;23.27;44.10;99767.75;4358456;32;20041;-91
2022/09/12 11:34:57;;;;;;;;;;;;;;;23.07;45.09;99764.09;4354824;32;19998;-90
2022/09/12 11:37:45;;;;;;;;;;;;;;;23.45;42.48;99767.03;4363417;32;19979;-90
2022/09/12 11:40:32;;;;;;;;;;;;;;;23.33;42.90;99762.25;4343259;32;19959;-93
2022/09/12 11:43:06;;;;;;;;;;;;;;;23.20;44.66;99761.84;4337564;32;20295;-93
2022/09/12 11:45:34;;;;;;;;;;;;;;;22.98;45.67;99761.78;4346522;32;20454;-83
2022/09/12 11:48:03;;;;;;;;;;;;;;;22.97;46.26;99760.91;4343282;32;19987;-91
2022/09/12 11:50:30;;;;;;;;;;;;;;;23.03;46.17;99757.16;4354942;32;19975;-95
2022/09/12 11:53:02;;;;;;;;;;;;;;;22.84;46.95;99758.72;4352827;32;20002;-94
2022/09/12 11:55:31;;;;;;;;;;;;;;;23.08;45.77;99752.59;4341753;32;19971;-87
2022/09/12 11:57:58;;;;;;;;;;;;;;;23.23;45.38;99760.84;4345922;32;20025;-81
2022/09/12 12:00:30;;;;;;;;;;;;;;;23.19;45.54;99760.97;4366729;32;19994;-81
2022/09/12 12:03:05;;;;;;;;;;;;;;;23.01;46.14;99761.66;4365494;32;20006;-80
2022/09/12 12:05:43;;;;;;;;;;;;;;;23.11;45.22;99755.13;4367548;32;20017;-80
2022/09/12 12:08:10;;;;;;;;;;;;;;;23.43;44.48;99758.34;4366534;32;20047;-88
2022/09/12 12:10:38;;;;;;;;;;;;;;;23.34;44.53;99750.75;4367707;32;20012;-83
2022/09/12 12:13:06;;;;;;;;;;;;;;;23.51;42.84;99740.41;4355182;32;20122;-83
2022/09/12 12:15:39;;;;;;;;;;;;;;;23.66;43.40;99739.81;4366101;32;20024;-87
2022/09/12 12:18:07;;;;;;;;;;;;;;;23.55;43.95;99751.72;4367763;32;20316;-81
2022/09/12 12:20:34;;;;;;;;;;;;;;;23.83;42.59;99738.31;4369084;32;20484;-86
2022/09/12 12:23:01;;;;;;;;;;;;;;;24.05;41.60;99731.22;4366897;32;19994;-79
2022/09/12 12:25:38;;;;;;;;;;;;;;;24.15;42.52;99731.69;4365659;32;20363;-93
2022/09/12 12:28:06;;;;;;;;;;;;;;;23.96;40.70;99739.53;4368972;32;19994;-95
2022/09/12 12:30:58;;;;;;;;;;;;;;;23.74;41.45;99730.72;4380156;32;19995;-85
2022/09/12 12:33:25;;;;;;;;;;;;;;;23.42;43.04;99727.53;4378213;32;20343;-92
2022/09/12 12:35:58;;;;;;;;;;;;;;;23.28;44.52;99729.84;4381623;32;20045;-89
2022/09/12 12:38:28;;;;;;;;;;;;;;;23.39;41.95;99735.59;4376630;32;19990;-93
2022/09/12 12:41:14;;;;;;;;;;;;;;;23.30;42.92;99730.69;4382536;32;20061;-85
2022/09/12 12:43:41;;;;;;;;;;;;;;;23.54;42.19;99735.00;4363565;32;20007;-95
2022/09/12 12:46:10;;;;;;;;;;;;;;;23.58;42.37;99741.91;4365160;32;20366;-82
2022/09/12 12:49:03;;;;;;;;;;;;;;;23.15;44.97;99732.97;4366860;32;19991;-93
2022/09/12 12:51:36;;;;;;;;;;;;;;;23.48;42.48;99734.37;4363957;32;20009;-84
2022/09/12 12:54:04;;;;;;;;;;;;;;;23.44;43.47;99729.22;4354227;32;20005;-86
2022/09/12 12:56:40;;;;;;;;;;;;;;;23.64;42.09;99731.09;4364018;32;21162;-88
2022/09/12 12:59:12;;;;;;;;;;;;;;;23.33;45.62;99720.00;4382261;32;20046;-81
2022/09/12 13:01:43;;;;;;;;;;;;;;;23.94;41.03;99720.25;4381873;32;20001;-86
2022/09/12 13:04:12;;;;;;;;;;;;;;;23.97;41.33;99717.47;4380333;32;20043;-83